Terminal Aerodrome Forecast
Issued by NWS

Current Version | Previous Version | Text Only | Print | Product List | Glossary On
Versions: 1 2 3 4 5 6 7 8 9 10 11 12 13 14 15 16 17 18 19
000
FTUS43 KMQT 211400 AAA
TAFIWD
TAF AMD
KIWD 211419Z 2114/2212 14007KT P6SM SCT006 BKN025
      TEMPO 2114/2116 OVC006
     FM211800 14007KT P6SM VCSH OVC045
     FM212200 14007KT 5SM -TSRA OVC045CB
     FM220200 13005KT 6SM -RA OVC015
      AMD NOT SKED=

USA.gov is the U.S. government's official web portal to all federal, state and local government web resources and services.